sensor_id;sensor_type;location;lat;lon;timestamp;temperature;humidity
21184;DHT22;18176;49.502;11.754;2023-09-12T00:00:34;17.30;99.90
21184;DHT22;18176;49.502;11.754;2023-09-12T00:04:34;17.30;99.90
21184;DHT22;18176;49.502;11.754;2023-09-12T00:08:37;17.20;99.90
21184;DHT22;18176;49.502;11.754;2023-09-12T00:12:37;17.20;99.90
21184;DHT22;18176;49.502;11.754;2023-09-12T00:16:38;17.20;99.90
21184;DHT22;18176;49.502;11.754;2023-09-12T00:20:38;17.10;99.90
21184;DHT22;18176;49.502;11.754;2023-09-12T00:24:41;17.10;99.90
21184;DHT22;18176;49.502;11.754;2023-09-12T00:28:41;17.00;99.90
21184;DHT22;18176;49.502;11.754;2023-09-12T00:32:42;17.00;99.90
21184;DHT22;18176;49.502;11.754;2023-09-12T00:36:42;16.90;99.90
21184;DHT22;18176;49.502;11.754;2023-09-12T00:40:45;17.00;99.90
21184;DHT22;18176;49.502;11.754;2023-09-12T00:44:45;16.90;99.90
21184;DHT22;18176;49.502;11.754;2023-09-12T00:48:47;16.90;99.90
21184;DHT22;18176;49.502;11.754;2023-09-12T00:52:49;16.80;99.90
21184;DHT22;18176;49.502;11.754;2023-09-12T00:56:52;16.80;99.90
21184;DHT22;18176;49.502;11.754;2023-09-12T01:00:54;16.90;99.90
21184;DHT22;18176;49.502;11.754;2023-09-12T01:04:57;16.80;99.90
21184;DHT22;18176;49.502;11.754;2023-09-12T01:08:57;16.70;99.90
21184;DHT22;18176;49.502;11.754;2023-09-12T01:13:00;16.60;99.90
21184;DHT22;18176;49.502;11.754;2023-09-12T01:17:01;16.60;99.90
21184;DHT22;18176;49.502;11.754;2023-09-12T01:21:26;16.60;99.90
21184;DHT22;18176;49.502;11.754;2023-09-12T01:26:17;16.70;99.90
21184;DHT22;18176;49.502;11.754;2023-09-12T01:30:27;16.70;99.90
21184;DHT22;18176;49.502;11.754;2023-09-12T01:34:29;16.60;99.90
21184;DHT22;18176;49.502;11.754;2023-09-12T01:38:29;16.60;99.90
21184;DHT22;18176;49.502;11.754;2023-09-12T01:42:35;16.50;99.90
21184;DHT22;18176;49.502;11.754;2023-09-12T01:46:40;16.40;99.90
21184;DHT22;18176;49.502;11.754;2023-09-12T01:50:42;16.30;99.90
21184;DHT22;18176;49.502;11.754;2023-09-12T01:54:47;16.30;99.90
21184;DHT22;18176;49.502;11.754;2023-09-12T01:58:49;16.20;99.90
21184;DHT22;18176;49.502;11.754;2023-09-12T02:02:53;16.30;99.90
21184;DHT22;18176;49.502;11.754;2023-09-12T02:06:53;16.30;99.90
21184;DHT22;18176;49.502;11.754;2023-09-12T02:10:55;16.20;99.90
21184;DHT22;18176;49.502;11.754;2023-09-12T02:14:56;16.20;99.90
21184;DHT22;18176;49.502;11.754;2023-09-12T02:18:59;16.10;99.90
21184;DHT22;18176;49.502;11.754;2023-09-12T02:22:59;16.00;99.90
21184;DHT22;18176;49.502;11.754;2023-09-12T02:27:00;16.00;99.90
21184;DHT22;18176;49.502;11.754;2023-09-12T02:31:00;16.00;99.90
21184;DHT22;18176;49.502;11.754;2023-09-12T02:35:04;16.00;99.90
21184;DHT22;18176;49.502;11.754;2023-09-12T02:39:05;15.80;99.90
21184;DHT22;18176;49.502;11.754;2023-09-12T02:43:05;15.80;99.90
21184;DHT22;18176;49.502;11.754;2023-09-12T02:47:06;15.80;99.90
21184;DHT22;18176;49.502;11.754;2023-09-12T02:51:10;15.70;99.90
21184;DHT22;18176;49.502;11.754;2023-09-12T02:55:12;15.80;99.90
21184;DHT22;18176;49.502;11.754;2023-09-12T02:59:12;15.70;99.90
21184;DHT22;18176;49.502;11.754;2023-09-12T03:03:13;15.70;99.90
21184;DHT22;18176;49.502;11.754;2023-09-12T03:07:17;15.70;99.90
21184;DHT22;18176;49.502;11.754;2023-09-12T03:11:17;15.60;99.90
21184;DHT22;18176;49.502;11.754;2023-09-12T03:15:18;15.50;99.90
21184;DHT22;18176;49.502;11.754;2023-09-12T03:19:18;15.40;99.90
21184;DHT22;18176;49.502;11.754;2023-09-12T03:23:22;15.40;99.90
21184;DHT22;18176;49.502;11.754;2023-09-12T03:27:22;15.40;99.90
21184;DHT22;18176;49.502;11.754;2023-09-12T03:31:22;15.40;99.90
21184;DHT22;18176;49.502;11.754;2023-09-12T03:35:23;15.30;99.90
21184;DHT22;18176;49.502;11.754;2023-09-12T03:39:26;15.20;99.90
21184;DHT22;18176;49.502;11.754;2023-09-12T03:43:27;15.20;99.90
21184;DHT22;18176;49.502;11.754;2023-09-12T03:47:27;15.20;99.90
21184;DHT22;18176;49.502;11.754;2023-09-12T03:51:28;15.10;99.90
21184;DHT22;18176;49.502;11.754;2023-09-12T03:55:31;15.10;99.90
21184;DHT22;18176;49.502;11.754;2023-09-12T03:59:32;15.10;99.90
21184;DHT22;18176;49.502;11.754;2023-09-12T04:03:32;15.10;99.90
21184;DHT22;18176;49.502;11.754;2023-09-12T04:07:33;15.10;99.90
21184;DHT22;18176;49.502;11.754;2023-09-12T04:11:36;15.00;99.90
21184;DHT22;18176;49.502;11.754;2023-09-12T04:15:43;15.00;99.90
21184;DHT22;18176;49.502;11.754;2023-09-12T04:19:43;14.90;99.90
21184;DHT22;18176;49.502;11.754;2023-09-12T04:23:44;14.90;99.90
21184;DHT22;18176;49.502;11.754;2023-09-12T04:27:47;14.80;99.90
21184;DHT22;18176;49.502;11.754;2023-09-12T04:31:47;14.70;99.90
21184;DHT22;18176;49.502;11.754;2023-09-12T04:35:49;14.70;99.90
21184;DHT22;18176;49.502;11.754;2023-09-12T04:39:50;14.70;99.90
21184;DHT22;18176;49.502;11.754;2023-09-12T04:43:54;14.70;99.90
21184;DHT22;18176;49.502;11.754;2023-09-12T04:47:56;14.80;99.90
21184;DHT22;18176;49.502;11.754;2023-09-12T04:51:56;14.70;99.90
21184;DHT22;18176;49.502;11.754;2023-09-12T04:55:57;14.80;99.90
21184;DHT22;18176;49.502;11.754;2023-09-12T05:00:00;14.80;99.90
21184;DHT22;18176;49.502;11.754;2023-09-12T05:04:02;14.80;99.90
21184;DHT22;18176;49.502;11.754;2023-09-12T05:08:03;14.90;99.90
21184;DHT22;18176;49.502;11.754;2023-09-12T05:12:05;15.00;99.90
21184;DHT22;18176;49.502;11.754;2023-09-12T05:16:08;15.00;99.90
21184;DHT22;18176;49.502;11.754;2023-09-12T05:20:10;15.00;99.90
21184;DHT22;18176;49.502;11.754;2023-09-12T05:24:11;15.00;99.90
21184;DHT22;18176;49.502;11.754;2023-09-12T05:28:11;15.10;99.90
21184;DHT22;18176;49.502;11.754;2023-09-12T05:32:19;15.10;99.90
21184;DHT22;18176;49.502;11.754;2023-09-12T05:36:19;15.10;99.90
21184;DHT22;18176;49.502;11.754;2023-09-12T05:40:20;15.20;99.90
21184;DHT22;18176;49.502;11.754;2023-09-12T05:44:20;15.30;99.90
21184;DHT22;18176;49.502;11.754;2023-09-12T05:48:24;15.30;99.90
21184;DHT22;18176;49.502;11.754;2023-09-12T05:52:24;15.40;99.90
21184;DHT22;18176;49.502;11.754;2023-09-12T05:56:25;15.40;99.90
21184;DHT22;18176;49.502;11.754;2023-09-12T06:00:25;15.50;99.90
21184;DHT22;18176;49.502;11.754;2023-09-12T06:04:28;15.60;99.90
21184;DHT22;18176;49.502;11.754;2023-09-12T06:08:29;15.70;99.90
21184;DHT22;18176;49.502;11.754;2023-09-12T06:12:29;15.90;99.90
21184;DHT22;18176;49.502;11.754;2023-09-12T06:16:30;16.00;99.90
21184;DHT22;18176;49.502;11.754;2023-09-12T06:20:33;16.10;99.90
21184;DHT22;18176;49.502;11.754;2023-09-12T06:24:33;16.20;99.90
21184;DHT22;18176;49.502;11.754;2023-09-12T06:28:36;16.30;99.90
21184;DHT22;18176;49.502;11.754;2023-09-12T06:32:36;16.50;99.90
21184;DHT22;18176;49.502;11.754;2023-09-12T06:36:39;16.70;99.90
21184;DHT22;18176;49.502;11.754;2023-09-12T06:40:42;16.90;99.90
21184;DHT22;18176;49.502;11.754;2023-09-12T06:44:44;17.10;99.90
21184;DHT22;18176;49.502;11.754;2023-09-12T06:48:44;17.20;99.90
21184;DHT22;18176;49.502;11.754;2023-09-12T06:52:48;17.30;99.90
21184;DHT22;18176;49.502;11.754;2023-09-12T06:56:51;17.40;99.90
21184;DHT22;18176;49.502;11.754;2023-09-12T07:00:52;17.60;99.90
21184;DHT22;18176;49.502;11.754;2023-09-12T07:04:55;17.70;99.90
21184;DHT22;18176;49.502;11.754;2023-09-12T07:08:58;17.80;99.90
21184;DHT22;18176;49.502;11.754;2023-09-12T07:13:00;17.90;99.90
21184;DHT22;18176;49.502;11.754;2023-09-12T07:17:01;18.10;99.90
21184;DHT22;18176;49.502;11.754;2023-09-12T07:21:03;18.40;99.90
21184;DHT22;18176;49.502;11.754;2023-09-12T07:25:08;18.60;99.90
21184;DHT22;18176;49.502;11.754;2023-09-12T07:29:09;18.80;99.90
21184;DHT22;18176;49.502;11.754;2023-09-12T07:33:10;19.20;99.90
21184;DHT22;18176;49.502;11.754;2023-09-12T07:37:10;19.60;99.90
21184;DHT22;18176;49.502;11.754;2023-09-12T07:41:13;20.00;99.90
21184;DHT22;18176;49.502;11.754;2023-09-12T07:45:15;20.30;99.90
21184;DHT22;18176;49.502;11.754;2023-09-12T07:49:17;20.50;99.90
21184;DHT22;18176;49.502;11.754;2023-09-12T07:53:18;20.60;99.90
21184;DHT22;18176;49.502;11.754;2023-09-12T07:57:22;20.80;99.90
21184;DHT22;18176;49.502;11.754;2023-09-12T08:01:22;21.10;99.90
21184;DHT22;18176;49.502;11.754;2023-09-12T08:05:24;21.50;99.90
21184;DHT22;18176;49.502;11.754;2023-09-12T08:09:51;21.70;99.90
21184;DHT22;18176;49.502;11.754;2023-09-12T08:13:52;22.00;99.90
21184;DHT22;18176;49.502;11.754;2023-09-12T08:17:54;22.60;99.90
21184;DHT22;18176;49.502;11.754;2023-09-12T08:21:55;23.10;99.90
21184;DHT22;18176;49.502;11.754;2023-09-12T08:25:57;23.70;99.90
21184;DHT22;18176;49.502;11.754;2023-09-12T08:29:58;23.90;99.90
21184;DHT22;18176;49.502;11.754;2023-09-12T08:33:58;24.20;99.90
21184;DHT22;18176;49.502;11.754;2023-09-12T08:37:58;24.60;99.90
21184;DHT22;18176;49.502;11.754;2023-09-12T08:42:01;24.80;99.90
21184;DHT22;18176;49.502;11.754;2023-09-12T08:46:02;25.00;99.90
21184;DHT22;18176;49.502;11.754;2023-09-12T08:50:05;25.10;99.90
21184;DHT22;18176;49.502;11.754;2023-09-12T08:54:07;25.10;99.90
21184;DHT22;18176;49.502;11.754;2023-09-12T08:58:11;25.60;99.90
21184;DHT22;18176;49.502;11.754;2023-09-12T09:02:12;26.00;99.90
21184;DHT22;18176;49.502;11.754;2023-09-12T09:06:15;26.30;99.90
21184;DHT22;18176;49.502;11.754;2023-09-12T09:10:18;26.70;99.90
21184;DHT22;18176;49.502;11.754;2023-09-12T09:14:40;27.00;99.90
21184;DHT22;18176;49.502;11.754;2023-09-12T09:18:50;27.30;99.90
21184;DHT22;18176;49.502;11.754;2023-09-12T09:22:59;27.80;99.90
21184;DHT22;18176;49.502;11.754;2023-09-12T09:27:02;28.10;99.90
21184;DHT22;18176;49.502;11.754;2023-09-12T09:31:10;28.40;99.90
21184;DHT22;18176;49.502;11.754;2023-09-12T09:35:11;28.30;99.90
21184;DHT22;18176;49.502;11.754;2023-09-12T09:39:13;28.50;99.90
21184;DHT22;18176;49.502;11.754;2023-09-12T09:43:19;29.00;99.90
21184;DHT22;18176;49.502;11.754;2023-09-12T09:47:24;29.70;99.90
21184;DHT22;18176;49.502;11.754;2023-09-12T09:51:25;30.10;99.90
21184;DHT22;18176;49.502;11.754;2023-09-12T09:55:26;29.60;99.90
21184;DHT22;18176;49.502;11.754;2023-09-12T09:59:27;29.90;99.90
21184;DHT22;18176;49.502;11.754;2023-09-12T10:03:32;30.80;99.90
21184;DHT22;18176;49.502;11.754;2023-09-12T10:07:37;31.30;99.90
21184;DHT22;18176;49.502;11.754;2023-09-12T10:11:40;31.70;99.90
21184;DHT22;18176;49.502;11.754;2023-09-12T10:15:43;31.70;99.90
21184;DHT22;18176;49.502;11.754;2023-09-12T10:19:54;32.80;99.90
21184;DHT22;18176;49.502;11.754;2023-09-12T10:23:56;33.20;99.90
21184;DHT22;18176;49.502;11.754;2023-09-12T10:27:58;33.40;99.90
21184;DHT22;18176;49.502;11.754;2023-09-12T10:31:59;34.40;99.90
21184;DHT22;18176;49.502;11.754;2023-09-12T10:36:03;34.40;99.90
21184;DHT22;18176;49.502;11.754;2023-09-12T10:40:08;34.50;97.90
21184;DHT22;18176;49.502;11.754;2023-09-12T10:44:10;34.50;97.60
21184;DHT22;18176;49.502;11.754;2023-09-12T10:48:14;35.30;95.50
21184;DHT22;18176;49.502;11.754;2023-09-12T10:52:27;36.00;94.30
21184;DHT22;18176;49.502;11.754;2023-09-12T10:56:28;36.50;92.90
21184;DHT22;18176;49.502;11.754;2023-09-12T11:00:29;36.10;91.40
21184;DHT22;18176;49.502;11.754;2023-09-12T11:04:33;35.60;92.00
21184;DHT22;18176;49.502;11.754;2023-09-12T11:08:40;35.60;91.90
21184;DHT22;18176;49.502;11.754;2023-09-12T11:12:40;35.90;92.30
21184;DHT22;18176;49.502;11.754;2023-09-12T11:16:42;36.20;91.10
21184;DHT22;18176;49.502;11.754;2023-09-12T11:20:51;35.10;89.50
21184;DHT22;18176;49.502;11.754;2023-09-12T11:24:55;36.00;88.50
21184;DHT22;18176;49.502;11.754;2023-09-12T11:28:55;37.10;81.50
21184;DHT22;18176;49.502;11.754;2023-09-12T11:32:56;36.80;83.20
21184;DHT22;18176;49.502;11.754;2023-09-12T11:36:58;36.80;79.60
21184;DHT22;18176;49.502;11.754;2023-09-12T11:41:03;36.40;81.50
21184;DHT22;18176;49.502;11.754;2023-09-12T11:45:08;36.20;80.80
21184;DHT22;18176;49.502;11.754;2023-09-12T11:49:10;35.60;77.90
21184;DHT22;18176;49.502;11.754;2023-09-12T11:53:11;35.60;74.60
21184;DHT22;18176;49.502;11.754;2023-09-12T11:57:16;35.40;74.10
21184;DHT22;18176;49.502;11.754;2023-09-12T12:01:17;35.10;76.70
21184;DHT22;18176;49.502;11.754;2023-09-12T12:05:18;36.70;77.20
21184;DHT22;18176;49.502;11.754;2023-09-12T12:09:19;37.10;69.80
21184;DHT22;18176;49.502;11.754;2023-09-12T12:13:22;36.60;71.60
21184;DHT22;18176;49.502;11.754;2023-09-12T12:17:22;37.70;68.10
21184;DHT22;18176;49.502;11.754;2023-09-12T12:21:22;38.70;65.80
21184;DHT22;18176;49.502;11.754;2023-09-12T12:25:25;38.40;63.00
21184;DHT22;18176;49.502;11.754;2023-09-12T12:29:28;37.10;64.00
21184;DHT22;18176;49.502;11.754;2023-09-12T12:33:30;36.60;65.10
21184;DHT22;18176;49.502;11.754;2023-09-12T12:37:52;37.00;65.00
21184;DHT22;18176;49.502;11.754;2023-09-12T12:42:03;37.10;62.70
21184;DHT22;18176;49.502;11.754;2023-09-12T12:46:10;36.20;64.80
21184;DHT22;18176;49.502;11.754;2023-09-12T12:50:12;35.90;64.20
21184;DHT22;18176;49.502;11.754;2023-09-12T12:54:15;36.00;65.10
21184;DHT22;18176;49.502;11.754;2023-09-12T12:58:15;36.70;63.20
21184;DHT22;18176;49.502;11.754;2023-09-12T13:02:18;37.10;62.70
21184;DHT22;18176;49.502;11.754;2023-09-12T13:06:19;36.70;63.20
21184;DHT22;18176;49.502;11.754;2023-09-12T13:10:20;36.30;61.80
21184;DHT22;18176;49.502;11.754;2023-09-12T13:14:21;36.30;60.90
21184;DHT22;18176;49.502;11.754;2023-09-12T13:18:30;36.20;63.10
21184;DHT22;18176;49.502;11.754;2023-09-12T13:22:31;36.00;62.90
21184;DHT22;18176;49.502;11.754;2023-09-12T13:26:31;35.70;63.40
21184;DHT22;18176;49.502;11.754;2023-09-12T13:30:31;35.60;65.50
21184;DHT22;18176;49.502;11.754;2023-09-12T13:34:35;35.90;65.50
21184;DHT22;18176;49.502;11.754;2023-09-12T13:38:35;35.80;64.20
21184;DHT22;18176;49.502;11.754;2023-09-12T13:42:35;35.50;66.10
21184;DHT22;18176;49.502;11.754;2023-09-12T13:46:36;35.30;64.90
21184;DHT22;18176;49.502;11.754;2023-09-12T13:50:39;35.20;67.30
21184;DHT22;18176;49.502;11.754;2023-09-12T13:54:40;35.70;65.10
21184;DHT22;18176;49.502;11.754;2023-09-12T13:58:40;35.50;64.90
21184;DHT22;18176;49.502;11.754;2023-09-12T14:02:43;35.00;65.70
21184;DHT22;18176;49.502;11.754;2023-09-12T14:06:46;35.00;66.00
21184;DHT22;18176;49.502;11.754;2023-09-12T14:10:47;35.00;66.00
21184;DHT22;18176;49.502;11.754;2023-09-12T14:14:50;35.40;65.20
21184;DHT22;18176;49.502;11.754;2023-09-12T14:19:03;35.20;65.50
21184;DHT22;18176;49.502;11.754;2023-09-12T14:23:06;35.10;68.00
21184;DHT22;18176;49.502;11.754;2023-09-12T14:27:06;35.60;66.70
21184;DHT22;18176;49.502;11.754;2023-09-12T14:31:22;36.80;65.10
21184;DHT22;18176;49.502;11.754;2023-09-12T14:35:22;37.20;62.70
21184;DHT22;18176;49.502;11.754;2023-09-12T14:39:25;37.00;62.50
21184;DHT22;18176;49.502;11.754;2023-09-12T14:43:26;37.30;63.50
21184;DHT22;18176;49.502;11.754;2023-09-12T14:47:26;37.60;61.40
21184;DHT22;18176;49.502;11.754;2023-09-12T14:51:27;37.60;59.60
21184;DHT22;18176;49.502;11.754;2023-09-12T14:55:33;37.60;59.80
21184;DHT22;18176;49.502;11.754;2023-09-12T14:59:33;37.60;59.40
21184;DHT22;18176;49.502;11.754;2023-09-12T15:03:33;37.80;58.40
21184;DHT22;18176;49.502;11.754;2023-09-12T15:07:35;37.70;59.20
21184;DHT22;18176;49.502;11.754;2023-09-12T15:11:38;37.70;59.30
21184;DHT22;18176;49.502;11.754;2023-09-12T15:15:39;37.80;57.40
21184;DHT22;18176;49.502;11.754;2023-09-12T15:19:39;37.50;56.90
21184;DHT22;18176;49.502;11.754;2023-09-12T15:23:39;37.60;58.20
21184;DHT22;18176;49.502;11.754;2023-09-12T15:27:42;37.10;57.80
21184;DHT22;18176;49.502;11.754;2023-09-12T15:31:43;37.10;57.60
21184;DHT22;18176;49.502;11.754;2023-09-12T15:35:43;36.50;58.00
21184;DHT22;18176;49.502;11.754;2023-09-12T15:39:43;36.10;58.80
21184;DHT22;18176;49.502;11.754;2023-09-12T15:43:46;35.30;59.50
21184;DHT22;18176;49.502;11.754;2023-09-12T15:48:06;34.90;60.20
21184;DHT22;18176;49.502;11.754;2023-09-12T15:52:07;34.60;61.70
21184;DHT22;18176;49.502;11.754;2023-09-12T15:56:07;34.40;63.10
21184;DHT22;18176;49.502;11.754;2023-09-12T16:00:13;34.10;62.20
21184;DHT22;18176;49.502;11.754;2023-09-12T16:04:13;33.70;63.80
21184;DHT22;18176;49.502;11.754;2023-09-12T16:08:14;33.00;65.30
21184;DHT22;18176;49.502;11.754;2023-09-12T16:12:14;32.20;67.40
21184;DHT22;18176;49.502;11.754;2023-09-12T16:16:17;31.70;69.90
21184;DHT22;18176;49.502;11.754;2023-09-12T16:20:17;31.60;71.20
21184;DHT22;18176;49.502;11.754;2023-09-12T16:24:17;31.90;73.40
21184;DHT22;18176;49.502;11.754;2023-09-12T16:28:19;32.20;70.80
21184;DHT22;18176;49.502;11.754;2023-09-12T16:32:23;32.40;70.20
21184;DHT22;18176;49.502;11.754;2023-09-12T16:36:23;32.60;69.50
21184;DHT22;18176;49.502;11.754;2023-09-12T16:40:24;32.50;69.50
21184;DHT22;18176;49.502;11.754;2023-09-12T16:44:24;32.10;70.50
21184;DHT22;18176;49.502;11.754;2023-09-12T16:48:27;31.50;74.90
21184;DHT22;18176;49.502;11.754;2023-09-12T16:52:27;30.90;80.20
21184;DHT22;18176;49.502;11.754;2023-09-12T16:56:30;30.20;82.20
21184;DHT22;18176;49.502;11.754;2023-09-12T17:00:30;29.60;84.00
21184;DHT22;18176;49.502;11.754;2023-09-12T17:04:33;29.10;87.40
21184;DHT22;18176;49.502;11.754;2023-09-12T17:08:36;28.50;88.00
21184;DHT22;18176;49.502;11.754;2023-09-12T17:12:37;28.20;90.30
21184;DHT22;18176;49.502;11.754;2023-09-12T17:16:37;27.80;90.60
21184;DHT22;18176;49.502;11.754;2023-09-12T17:20:40;27.50;90.60
21184;DHT22;18176;49.502;11.754;2023-09-12T17:24:40;27.20;91.30
21184;DHT22;18176;49.502;11.754;2023-09-12T17:28:41;26.90;92.20
21184;DHT22;18176;49.502;11.754;2023-09-12T17:32:41;26.60;93.50
21184;DHT22;18176;49.502;11.754;2023-09-12T17:36:44;26.30;94.70
21184;DHT22;18176;49.502;11.754;2023-09-12T17:40:45;26.00;95.70
21184;DHT22;18176;49.502;11.754;2023-09-12T17:44:45;25.80;96.60
21184;DHT22;18176;49.502;11.754;2023-09-12T17:48:46;25.60;97.20
21184;DHT22;18176;49.502;11.754;2023-09-12T17:52:49;25.30;99.60
21184;DHT22;18176;49.502;11.754;2023-09-12T17:56:49;25.20;99.90
21184;DHT22;18176;49.502;11.754;2023-09-12T18:00:57;25.10;99.90
21184;DHT22;18176;49.502;11.754;2023-09-12T18:04:59;25.00;99.90
21184;DHT22;18176;49.502;11.754;2023-09-12T18:09:05;24.90;99.90
21184;DHT22;18176;49.502;11.754;2023-09-12T18:13:05;24.70;99.90
21184;DHT22;18176;49.502;11.754;2023-09-12T18:17:06;24.70;99.90
21184;DHT22;18176;49.502;11.754;2023-09-12T18:21:08;24.50;99.90
21184;DHT22;18176;49.502;11.754;2023-09-12T18:25:12;24.50;99.90
21184;DHT22;18176;49.502;11.754;2023-09-12T18:29:14;24.30;99.90
21184;DHT22;18176;49.502;11.754;2023-09-12T18:33:16;24.20;99.90
21184;DHT22;18176;49.502;11.754;2023-09-12T18:37:16;24.10;99.90
21184;DHT22;18176;49.502;11.754;2023-09-12T18:41:20;24.00;99.90
21184;DHT22;18176;49.502;11.754;2023-09-12T18:45:20;23.90;99.90
21184;DHT22;18176;49.502;11.754;2023-09-12T18:49:21;23.70;99.90
21184;DHT22;18176;49.502;11.754;2023-09-12T18:53:22;23.70;99.90
21184;DHT22;18176;49.502;11.754;2023-09-12T18:57:25;23.60;99.90
21184;DHT22;18176;49.502;11.754;2023-09-12T19:01:26;23.60;99.90
21184;DHT22;18176;49.502;11.754;2023-09-12T19:05:26;23.50;99.90
21184;DHT22;18176;49.502;11.754;2023-09-12T19:09:27;23.50;99.90
21184;DHT22;18176;49.502;11.754;2023-09-12T19:13:30;23.50;99.90
21184;DHT22;18176;49.502;11.754;2023-09-12T19:17:31;23.50;99.90
21184;DHT22;18176;49.502;11.754;2023-09-12T19:21:31;23.50;99.90
21184;DHT22;18176;49.502;11.754;2023-09-12T19:25:32;23.50;99.90
21184;DHT22;18176;49.502;11.754;2023-09-12T19:29:49;23.50;99.90
21184;DHT22;18176;49.502;11.754;2023-09-12T19:33:50;23.50;99.90
21184;DHT22;18176;49.502;11.754;2023-09-12T19:37:50;23.40;99.90
21184;DHT22;18176;49.502;11.754;2023-09-12T19:41:52;23.30;99.90
21184;DHT22;18176;49.502;11.754;2023-09-12T19:46:01;23.30;99.90
21184;DHT22;18176;49.502;11.754;2023-09-12T19:50:02;23.30;99.90
21184;DHT22;18176;49.502;11.754;2023-09-12T19:54:03;23.20;99.90
21184;DHT22;18176;49.502;11.754;2023-09-12T19:58:04;23.20;99.90
21184;DHT22;18176;49.502;11.754;2023-09-12T20:02:07;23.10;99.90
21184;DHT22;18176;49.502;11.754;2023-09-12T20:06:08;23.10;99.90
21184;DHT22;18176;49.502;11.754;2023-09-12T20:10:09;23.10;99.90
21184;DHT22;18176;49.502;11.754;2023-09-12T20:14:10;23.10;99.90
21184;DHT22;18176;49.502;11.754;2023-09-12T20:18:13;23.00;99.90
21184;DHT22;18176;49.502;11.754;2023-09-12T20:22:14;23.00;99.90
21184;DHT22;18176;49.502;11.754;2023-09-12T20:26:14;23.10;99.90
21184;DHT22;18176;49.502;11.754;2023-09-12T20:30:15;23.10;99.90
21184;DHT22;18176;49.502;11.754;2023-09-12T20:34:20;23.20;99.90
21184;DHT22;18176;49.502;11.754;2023-09-12T20:38:21;23.10;99.90
21184;DHT22;18176;49.502;11.754;2023-09-12T20:42:21;23.00;99.90
21184;DHT22;18176;49.502;11.754;2023-09-12T20:46:22;22.90;99.90
21184;DHT22;18176;49.502;11.754;2023-09-12T20:50:28;22.70;99.90
21184;DHT22;18176;49.502;11.754;2023-09-12T20:54:29;22.50;99.90
21184;DHT22;18176;49.502;11.754;2023-09-12T20:58:29;22.30;99.90
21184;DHT22;18176;49.502;11.754;2023-09-12T21:02:30;22.10;99.90
21184;DHT22;18176;49.502;11.754;2023-09-12T21:06:33;22.00;99.90
21184;DHT22;18176;49.502;11.754;2023-09-12T21:10:33;21.80;99.90
21184;DHT22;18176;49.502;11.754;2023-09-12T21:14:34;21.70;99.90
21184;DHT22;18176;49.502;11.754;2023-09-12T21:18:34;21.60;99.90
21184;DHT22;18176;49.502;11.754;2023-09-12T21:22:38;21.60;99.90
21184;DHT22;18176;49.502;11.754;2023-09-12T21:26:38;21.50;99.90
21184;DHT22;18176;49.502;11.754;2023-09-12T21:30:39;21.40;99.90
21184;DHT22;18176;49.502;11.754;2023-09-12T21:34:43;21.30;99.90
21184;DHT22;18176;49.502;11.754;2023-09-12T21:38:46;21.20;99.90
21184;DHT22;18176;49.502;11.754;2023-09-12T21:42:47;21.30;99.90
21184;DHT22;18176;49.502;11.754;2023-09-12T21:46:47;21.20;99.90
21184;DHT22;18176;49.502;11.754;2023-09-12T21:50:48;21.00;99.90
21184;DHT22;18176;49.502;11.754;2023-09-12T21:54:52;20.90;99.90
21184;DHT22;18176;49.502;11.754;2023-09-12T21:58:52;20.70;99.90
21184;DHT22;18176;49.502;11.754;2023-09-12T22:02:54;20.70;99.90
21184;DHT22;18176;49.502;11.754;2023-09-12T22:06:54;20.70;99.90
21184;DHT22;18176;49.502;11.754;2023-09-12T22:10:57;20.70;99.90
21184;DHT22;18176;49.502;11.754;2023-09-12T22:14:58;20.60;99.90
21184;DHT22;18176;49.502;11.754;2023-09-12T22:18:58;20.50;99.90
21184;DHT22;18176;49.502;11.754;2023-09-12T22:22:59;20.40;99.90
21184;DHT22;18176;49.502;11.754;2023-09-12T22:27:03;20.30;99.90
21184;DHT22;18176;49.502;11.754;2023-09-12T22:31:07;20.20;99.90
21184;DHT22;18176;49.502;11.754;2023-09-12T22:35:09;20.20;99.90
21184;DHT22;18176;49.502;11.754;2023-09-12T22:39:10;20.20;99.90
21184;DHT22;18176;49.502;11.754;2023-09-12T22:43:13;20.20;99.90
21184;DHT22;18176;49.502;11.754;2023-09-12T22:47:13;20.10;99.90
21184;DHT22;18176;49.502;11.754;2023-09-12T22:51:14;20.10;99.90
21184;DHT22;18176;49.502;11.754;2023-09-12T22:55:14;20.00;99.90
21184;DHT22;18176;49.502;11.754;2023-09-12T22:59:17;19.90;99.90
21184;DHT22;18176;49.502;11.754;2023-09-12T23:03:17;19.80;99.90
21184;DHT22;18176;49.502;11.754;2023-09-12T23:07:18;19.90;99.90
21184;DHT22;18176;49.502;11.754;2023-09-12T23:11:18;19.80;99.90
21184;DHT22;18176;49.502;11.754;2023-09-12T23:15:22;19.70;99.90
21184;DHT22;18176;49.502;11.754;2023-09-12T23:19:23;19.60;99.90
21184;DHT22;18176;49.502;11.754;2023-09-12T23:23:23;19.50;99.90
21184;DHT22;18176;49.502;11.754;2023-09-12T23:27:24;19.50;99.90
21184;DHT22;18176;49.502;11.754;2023-09-12T23:31:27;19.30;99.90
21184;DHT22;18176;49.502;11.754;2023-09-12T23:35:28;19.30;99.90
21184;DHT22;18176;49.502;11.754;2023-09-12T23:39:28;19.20;99.90
21184;DHT22;18176;49.502;11.754;2023-09-12T23:43:29;19.20;99.90
21184;DHT22;18176;49.502;11.754;2023-09-12T23:47:33;19.20;99.90
21184;DHT22;18176;49.502;11.754;2023-09-12T23:51:33;19.20;99.90
21184;DHT22;18176;49.502;11.754;2023-09-12T23:55:34;19.10;99.90
21184;DHT22;18176;49.502;11.754;2023-09-12T23:59:35;19.10;99.90
